Time,TemperatureF,DewpointF,PressureIn,WindDirection,WindDirectionDegrees,WindSpeedMPH,WindSpeedGustMPH,Humidity,HourlyPrecipIn,Conditions,Clouds,dailyrainin,SoftwareType,DateUTC
2013-02-22 00:07:00,42.1,41.0,29.77,ESE,118,1.0,11.0,96,0.00,,,0.00,weatherlink.com 1.10,2013-02-22 06:07:00,
2013-02-22 00:23:00,42.6,42.0,29.76,East,98,2.0,11.0,96,0.00,,,0.00,weatherlink.com 1.10,2013-02-22 06:23:00,
2013-02-22 00:39:00,42.8,42.0,29.76,East,95,4.0,8.0,96,0.00,,,0.00,weatherlink.com 1.10,2013-02-22 06:39:00,
2013-02-22 00:55:00,43.0,42.0,29.76,SE,145,1.0,7.0,96,0.00,,,0.00,weatherlink.com 1.10,2013-02-22 06:55:00,
2013-02-22 01:12:00,43.4,42.0,29.76,East,99,2.0,6.0,96,0.00,,,0.00,weatherlink.com 1.10,2013-02-22 07:12:00,
2013-02-22 01:28:00,43.7,43.0,29.76,ESE,110,2.0,6.0,96,0.00,,,0.00,weatherlink.com 1.10,2013-02-22 07:28:00,
2013-02-22 01:44:00,44.2,43.0,29.77,South,171,0.0,7.0,97,0.00,,,0.00,weatherlink.com 1.10,2013-02-22 07:44:00,
2013-02-22 02:01:00,44.7,44.0,29.76,SSE,153,0.0,6.0,97,0.00,,,0.00,weatherlink.com 1.10,2013-02-22 08:01:00,
2013-02-22 02:18:00,45.0,44.0,29.76,SW,215,1.0,5.0,97,0.00,,,0.00,weatherlink.com 1.10,2013-02-22 08:18:00,
2013-02-22 02:34:00,45.4,45.0,29.78,SSE,156,1.0,5.0,97,0.01,,,0.01,weatherlink.com 1.10,2013-02-22 08:34:00,
2013-02-22 02:50:00,45.5,45.0,29.78,WSW,245,0.0,2.0,97,0.01,,,0.01,weatherlink.com 1.10,2013-02-22 08:50:00,
2013-02-22 03:07:00,46.1,45.0,29.78,SW,230,0.0,4.0,97,0.01,,,0.01,weatherlink.com 1.10,2013-02-22 09:07:00,
2013-02-22 03:23:00,46.9,46.0,29.78,South,186,1.0,6.0,98,0.01,,,0.02,weatherlink.com 1.10,2013-02-22 09:23:00,
2013-02-22 03:39:00,47.8,47.0,29.78,South,182,1.0,5.0,98,0.01,,,0.02,weatherlink.com 1.10,2013-02-22 09:39:00,
2013-02-22 03:56:00,48.3,48.0,29.78,SSW,195,2.0,7.0,98,0.01,,,0.02,weatherlink.com 1.10,2013-02-22 09:56:00,
2013-02-22 04:12:00,48.7,48.0,29.79,SSW,194,0.0,5.0,98,0.01,,,0.02,weatherlink.com 1.10,2013-02-22 10:12:00,
2013-02-22 04:29:00,48.6,48.0,29.80,SSW,196,3.0,6.0,97,0.00,,,0.02,weatherlink.com 1.10,2013-02-22 10:29:00,
2013-02-22 04:46:00,48.2,47.0,29.81,South,186,0.0,7.0,97,0.00,,,0.02,weatherlink.com 1.10,2013-02-22 10:46:00,
2013-02-22 05:02:00,47.5,47.0,29.82,South,180,0.0,5.0,97,0.00,,,0.02,weatherlink.com 1.10,2013-02-22 11:02:00,
2013-02-22 05:18:00,46.8,46.0,29.83,SSW,200,0.0,5.0,96,0.00,,,0.02,weatherlink.com 1.10,2013-02-22 11:18:00,
2013-02-22 05:35:00,46.0,45.0,29.83,SSE,168,0.0,2.0,96,0.00,,,0.02,weatherlink.com 1.10,2013-02-22 11:35:00,
2013-02-22 05:51:00,45.2,44.0,29.84,South,178,0.0,2.0,97,0.00,,,0.02,weatherlink.com 1.10,2013-02-22 11:51:00,
2013-02-22 06:08:00,45.1,44.0,29.84,South,181,0.0,2.0,97,0.00,,,0.02,weatherlink.com 1.10,2013-02-22 12:08:00,
2013-02-22 06:24:00,44.3,43.0,29.85,SW,226,0.0,0.0,96,0.00,,,0.02,weatherlink.com 1.10,2013-02-22 12:24:00,
2013-02-22 06:40:00,44.3,44.0,29.86,SW,225,0.0,1.0,97,0.00,,,0.02,weatherlink.com 1.10,2013-02-22 12:40:00,
2013-02-22 06:57:00,44.4,44.0,29.87,SW,225,0.0,1.0,97,0.00,,,0.02,weatherlink.com 1.10,2013-02-22 12:57:00,
2013-02-22 07:13:00,44.5,44.0,29.87,SW,225,0.0,1.0,97,0.00,,,0.02,weatherlink.com 1.10,2013-02-22 13:13:00,
2013-02-22 07:30:00,45.2,45.0,29.89,SW,225,0.0,2.0,98,0.00,,,0.02,weatherlink.com 1.10,2013-02-22 13:30:00,
2013-02-22 07:45:00,45.9,45.0,29.89,SW,225,0.0,2.0,98,0.00,,,0.02,weatherlink.com 1.10,2013-02-22 13:45:00,
2013-02-22 08:03:00,46.3,46.0,29.89,SW,225,0.0,3.0,98,0.00,,,0.02,weatherlink.com 1.10,2013-02-22 14:03:00,
2013-02-22 08:19:00,47.0,47.0,29.89,SW,221,1.0,4.0,98,0.00,,,0.02,weatherlink.com 1.10,2013-02-22 14:19:00,
2013-02-22 08:35:00,47.2,46.0,29.89,SSW,194,2.0,5.0,97,0.00,,,0.02,weatherlink.com 1.10,2013-02-22 14:35:00,
2013-02-22 08:51:00,47.8,47.0,29.89,SW,215,1.0,6.0,96,0.00,,,0.02,weatherlink.com 1.10,2013-02-22 14:51:00,
2013-02-22 09:07:00,48.6,47.0,29.90,SSW,202,1.0,6.0,95,0.00,,,0.02,weatherlink.com 1.10,2013-02-22 15:07:00,
2013-02-22 09:24:00,48.8,47.0,29.90,SW,234,1.0,6.0,94,0.00,,,0.02,weatherlink.com 1.10,2013-02-22 15:24:00,
2013-02-22 09:41:00,49.1,47.0,29.91,SSW,192,1.0,5.0,93,0.00,,,0.02,weatherlink.com 1.10,2013-02-22 15:41:00,
2013-02-22 09:57:00,50.1,48.0,29.90,WSW,239,1.0,9.0,92,0.00,,,0.02,weatherlink.com 1.10,2013-02-22 15:57:00,
2013-02-22 10:13:00,52.6,49.0,29.91,WSW,239,5.0,7.0,87,0.00,,,0.02,weatherlink.com 1.10,2013-02-22 16:13:00,
2013-02-22 10:30:00,53.8,49.0,29.91,SW,217,2.0,8.0,84,0.00,,,0.02,weatherlink.com 1.10,2013-02-22 16:30:00,
2013-02-22 10:46:00,53.0,48.0,29.92,WSW,245,5.0,9.0,83,0.00,,,0.02,weatherlink.com 1.10,2013-02-22 16:46:00,
2013-02-22 11:04:00,54.5,49.0,29.92,SW,217,0.0,6.0,82,0.00,,,0.02,weatherlink.com 1.10,2013-02-22 17:04:00,
2013-02-22 11:19:00,55.2,48.0,29.91,SW,222,8.0,8.0,78,0.00,,,0.02,weatherlink.com 1.10,2013-02-22 17:19:00,
2013-02-22 11:35:00,55.7,49.0,29.91,SW,233,2.0,7.0,77,0.00,,,0.02,weatherlink.com 1.10,2013-02-22 17:35:00,
2013-02-22 11:52:00,57.2,47.0,29.91,SW,227,6.0,9.0,69,0.00,,,0.02,weatherlink.com 1.10,2013-02-22 17:52:00,
2013-02-22 12:09:00,57.3,47.0,29.90,SSE,151,2.0,9.0,68,0.00,,,0.02,weatherlink.com 1.10,2013-02-22 18:09:00,
2013-02-22 12:25:00,57.8,47.0,29.89,SW,221,2.0,7.0,67,0.00,,,0.02,weatherlink.com 1.10,2013-02-22 18:25:00,
2013-02-22 12:41:00,57.8,46.0,29.89,WSW,242,2.0,7.0,65,0.00,,,0.02,weatherlink.com 1.10,2013-02-22 18:41:00,
2013-02-22 12:58:00,58.1,47.0,29.88,SW,221,2.0,7.0,67,0.00,,,0.02,weatherlink.com 1.10,2013-02-22 18:58:00,
2013-02-22 13:14:00,58.6,48.0,29.87,SW,223,4.0,9.0,67,0.00,,,0.02,weatherlink.com 1.10,2013-02-22 19:14:00,
2013-02-22 13:31:00,58.3,46.0,29.86,WSW,242,3.0,7.0,64,0.00,,,0.02,weatherlink.com 1.10,2013-02-22 19:31:00,
2013-02-22 13:47:00,58.7,45.0,29.86,SW,219,2.0,7.0,61,0.00,,,0.02,weatherlink.com 1.10,2013-02-22 19:47:00,
2013-02-22 14:03:00,59.1,45.0,29.86,SW,230,4.0,7.0,61,0.00,,,0.02,weatherlink.com 1.10,2013-02-22 20:03:00,
2013-02-22 14:20:00,59.3,45.0,29.86,SW,228,5.0,6.0,60,0.00,,,0.02,weatherlink.com 1.10,2013-02-22 20:20:00,
2013-02-22 14:36:00,58.9,45.0,29.85,SW,214,2.0,6.0,61,0.00,,,0.02,weatherlink.com 1.10,2013-02-22 20:36:00,
2013-02-22 14:52:00,59.4,45.0,29.84,SW,218,4.0,6.0,59,0.00,,,0.02,weatherlink.com 1.10,2013-02-22 20:52:00,
2013-02-22 15:10:00,60.0,45.0,29.85,SW,235,6.0,8.0,59,0.00,,,0.02,weatherlink.com 1.10,2013-02-22 21:10:00,
2013-02-22 15:25:00,59.0,44.0,29.85,SSW,210,2.0,6.0,59,0.00,,,0.02,weatherlink.com 1.10,2013-02-22 21:25:00,
2013-02-22 15:42:00,59.3,44.0,29.85,SW,219,3.0,7.0,57,0.00,,,0.02,weatherlink.com 1.10,2013-02-22 21:42:00,
2013-02-22 15:58:00,59.0,44.0,29.84,SW,223,4.0,6.0,58,0.00,,,0.02,weatherlink.com 1.10,2013-02-22 21:58:00,
2013-02-22 16:15:00,58.4,44.0,29.84,WSW,240,4.0,5.0,59,0.00,,,0.02,weatherlink.com 1.10,2013-02-22 22:15:00,
2013-02-22 16:31:00,57.4,43.0,29.84,SW,231,3.0,5.0,59,0.00,,,0.02,weatherlink.com 1.10,2013-02-22 22:31:00,
2013-02-22 16:47:00,56.6,43.0,29.84,SW,229,0.0,5.0,60,0.00,,,0.02,weatherlink.com 1.10,2013-02-22 22:47:00,
2013-02-22 17:04:00,55.4,42.0,29.84,WSW,238,1.0,4.0,62,0.00,,,0.02,weatherlink.com 1.10,2013-02-22 23:04:00,
2013-02-22 17:19:00,54.4,41.0,29.86,WSW,238,2.0,3.0,62,0.00,,,0.02,weatherlink.com 1.10,2013-02-22 23:19:00,
2013-02-22 17:36:00,53.5,41.0,29.86,WSW,238,0.0,4.0,63,0.00,,,0.02,weatherlink.com 1.10,2013-02-22 23:36:00,
2013-02-22 17:53:00,52.7,40.0,29.87,SW,230,4.0,4.0,63,0.00,,,0.02,weatherlink.com 1.10,2013-02-22 23:53:00,
2013-02-22 18:09:00,52.2,40.0,29.87,SW,234,2.0,2.0,64,0.00,,,0.02,weatherlink.com 1.10,2013-02-23 00:09:00,
2013-02-22 18:25:00,51.5,40.0,29.87,SW,234,1.0,2.0,65,0.00,,,0.02,weatherlink.com 1.10,2013-02-23 00:25:00,
2013-02-22 18:42:00,50.7,40.0,29.88,West,281,2.0,6.0,68,0.00,,,0.02,weatherlink.com 1.10,2013-02-23 00:42:00,
2013-02-22 18:58:00,50.3,42.0,29.88,West,268,3.0,6.0,73,0.00,,,0.02,weatherlink.com 1.10,2013-02-23 00:58:00,
2013-02-22 19:15:00,48.6,41.0,29.89,West,267,2.0,5.0,76,0.00,,,0.02,weatherlink.com 1.10,2013-02-23 01:15:00,
2013-02-22 19:30:00,46.9,41.0,29.89,WNW,295,1.0,6.0,80,0.00,,,0.02,weatherlink.com 1.10,2013-02-23 01:30:00,
2013-02-22 19:47:00,46.1,41.0,29.91,WNW,284,0.0,5.0,82,0.00,,,0.02,weatherlink.com 1.10,2013-02-23 01:47:00,
2013-02-22 20:04:00,45.5,41.0,29.91,West,279,0.0,4.0,83,0.00,,,0.02,weatherlink.com 1.10,2013-02-23 02:04:00,
2013-02-22 20:20:00,44.9,41.0,29.90,NNW,327,1.0,2.0,85,0.00,,,0.02,weatherlink.com 1.10,2013-02-23 02:20:00,
2013-02-22 20:37:00,44.3,40.0,29.92,SW,234,0.0,5.0,85,0.00,,,0.02,weatherlink.com 1.10,2013-02-23 02:37:00,
2013-02-22 20:53:00,44.0,40.0,29.92,WNW,302,2.0,6.0,85,0.00,,,0.02,weatherlink.com 1.10,2013-02-23 02:53:00,
2013-02-22 21:09:00,43.3,39.0,29.93,West,278,0.0,6.0,85,0.00,,,0.02,weatherlink.com 1.10,2013-02-23 03:09:00,
2013-02-22 21:26:00,42.7,39.0,29.93,West,281,1.0,6.0,85,0.00,,,0.02,weatherlink.com 1.10,2013-02-23 03:26:00,
2013-02-22 21:42:00,42.4,38.0,29.92,WNW,301,0.0,4.0,85,0.00,,,0.02,weatherlink.com 1.10,2013-02-23 03:42:00,
2013-02-22 21:59:00,41.8,38.0,29.92,WNW,288,1.0,5.0,85,0.00,,,0.02,weatherlink.com 1.10,2013-02-23 03:59:00,
2013-02-22 22:15:00,41.1,37.0,29.92,WNW,301,3.0,5.0,86,0.00,,,0.02,weatherlink.com 1.10,2013-02-23 04:15:00,
2013-02-22 22:32:00,40.4,37.0,29.93,NW,314,2.0,7.0,86,0.00,,,0.02,weatherlink.com 1.10,2013-02-23 04:32:00,
2013-02-22 22:48:00,40.0,37.0,29.94,NW,311,0.0,2.0,88,0.00,,,0.02,weatherlink.com 1.10,2013-02-23 04:48:00,
2013-02-22 23:04:00,39.7,36.0,29.94,WSW,250,0.0,6.0,86,0.00,,,0.02,weatherlink.com 1.10,2013-02-23 05:04:00,
2013-02-22 23:21:00,39.4,36.0,29.94,WSW,250,0.0,0.0,87,0.00,,,0.02,weatherlink.com 1.10,2013-02-23 05:21:00,
2013-02-22 23:37:00,39.2,35.0,29.94,WSW,250,0.0,0.0,86,0.00,,,0.02,weatherlink.com 1.10,2013-02-23 05:37:00,
2013-02-22 23:53:00,39.0,35.0,29.94,WSW,250,0.0,1.0,86,0.00,,,0.02,weatherlink.com 1.10,2013-02-23 05:53:00,